EWG3JM EDDH-EDDM
Flight info
| Callsign | EWG3JM |
|---|---|
| Flight time | 0h 57m |
| Altitude | 35000 |
| Route | AMLUH2G/33 AMLUH M852 DENIX DCT ZUCKA DCT SODRO/N0422F310 T703 LULAR/N0409F300 T105 LANDU LANDU2B |
| Aircraft | A20N/M-SDE2E3FGHIRWXY/LB1 |
Departure
| Time | 2026-05-07 16:53 |
|---|---|
| Airport | Hamburg Helmut Schmidt Airport (EDDH) |
Arrival
| Time | 2026-05-07 17:51 |
|---|---|
| Airport | Munich Airport (EDDM) |
| Time | Latitude | Longitude | Altitude | Speed | Heading |
|---|---|---|---|---|---|
| 2026-05-07 16:34 | 53.63112 | 10.00373 | 43 ft | 0 kts | 87° |
| 2026-05-07 16:45 | 53.63112 | 10.00371 | 43 ft | 0 kts | 87° |
| 2026-05-07 16:45 | 53.63111 | 10.00357 | 42 ft | 2 kts | 87° |
| 2026-05-07 16:45 | 53.63110 | 10.00332 | 41 ft | 2 kts | 87° |
| 2026-05-07 16:45 | 53.63109 | 10.00305 | 40 ft | 2 kts | 87° |
| 2026-05-07 16:46 | 53.63108 | 10.00279 | 39 ft | 2 kts | 87° |
| 2026-05-07 16:46 | 53.63108 | 10.00252 | 38 ft | 2 kts | 87° |
| 2026-05-07 16:46 | 53.63108 | 10.00224 | 37 ft | 2 kts | 114° |
| 2026-05-07 16:46 | 53.63118 | 10.00201 | 37 ft | 2 kts | 142° |
| 2026-05-07 16:47 | 53.63132 | 10.00189 | 36 ft | 1 kts | 168° |
| 2026-05-07 16:47 | 53.63139 | 10.00188 | 36 ft | 1 kts | 180° |
| 2026-05-07 16:47 | 53.63142 | 10.00187 | 36 ft | 0 kts | 176° |
| 2026-05-07 16:50 | 53.63122 | 10.00190 | 36 ft | 4 kts | 176° |
| 2026-05-07 16:50 | 53.63088 | 10.00190 | 37 ft | 5 kts | 189° |
| 2026-05-07 16:50 | 53.63052 | 10.00164 | 37 ft | 6 kts | 210° |
| 2026-05-07 16:50 | 53.63009 | 10.00118 | 37 ft | 6 kts | 212° |
| 2026-05-07 16:51 | 53.62991 | 10.00099 | 37 ft | 0 kts | 212° |
| 2026-05-07 16:51 | 53.62980 | 10.00087 | 37 ft | 4 kts | 212° |
| 2026-05-07 16:51 | 53.62943 | 10.00046 | 36 ft | 7 kts | 218° |
| 2026-05-07 16:52 | 53.62907 | 9.99952 | 34 ft | 11 kts | 244° |
| 2026-05-07 16:52 | 53.62868 | 9.99818 | 31 ft | 9 kts | 243° |
| 2026-05-07 16:52 | 53.62879 | 9.99736 | 31 ft | 7 kts | 327° |
| 2026-05-07 16:52 | 53.62996 | 9.99635 | 29 ft | 48 kts | 333° |
| 2026-05-07 16:53 | 53.63523 | 9.99178 | 35 ft | 118 kts | 333° |
| 2026-05-07 16:53 | 53.64418 | 9.98397 | 86 ft | 166 kts | 333° |
| 2026-05-07 16:53 | 53.65554 | 9.97421 | 646 ft | 175 kts | 336° |
| 2026-05-07 16:53 | 53.66731 | 9.96417 | 1388 ft | 179 kts | 337° |
| 2026-05-07 16:54 | 53.67940 | 9.95390 | 2010 ft | 186 kts | 338° |
| 2026-05-07 16:54 | 53.69346 | 9.94663 | 2500 ft | 198 kts | 359° |
| 2026-05-07 16:54 | 53.70879 | 9.94653 | 2979 ft | 215 kts | 5° |
| 2026-05-07 16:54 | 53.72460 | 9.94975 | 3504 ft | 226 kts | 27° |
| 2026-05-07 16:55 | 53.73655 | 9.96837 | 4434 ft | 221 kts | 65° |
| 2026-05-07 16:55 | 53.73962 | 9.99596 | 5290 ft | 226 kts | 96° |
| 2026-05-07 16:55 | 53.73218 | 10.02364 | 5818 ft | 251 kts | 133° |
| 2026-05-07 16:55 | 53.71479 | 10.03912 | 6417 ft | 273 kts | 163° |
| 2026-05-07 16:56 | 53.69506 | 10.04734 | 7275 ft | 279 kts | 164° |
| 2026-05-07 16:56 | 53.67424 | 10.05644 | 8254 ft | 282 kts | 164° |
| 2026-05-07 16:56 | 53.63158 | 10.07526 | 10134 ft | 290 kts | 164° |
| 2026-05-07 16:57 | 53.61078 | 10.08440 | 10847 ft | 300 kts | 164° |
| 2026-05-07 16:57 | 53.58882 | 10.09403 | 11300 ft | 318 kts | 165° |
| 2026-05-07 16:57 | 53.56531 | 10.10434 | 11853 ft | 332 kts | 165° |
| 2026-05-07 16:57 | 53.54082 | 10.11507 | 12675 ft | 336 kts | 165° |
| 2026-05-07 16:58 | 53.51600 | 10.12592 | 13513 ft | 340 kts | 165° |
| 2026-05-07 16:58 | 53.49110 | 10.13679 | 14325 ft | 344 kts | 165° |
| 2026-05-07 16:58 | 53.46619 | 10.14764 | 15131 ft | 348 kts | 165° |
| 2026-05-07 16:58 | 53.44160 | 10.15834 | 15845 ft | 353 kts | 165° |
| 2026-05-07 16:59 | 53.41663 | 10.16920 | 16573 ft | 357 kts | 166° |
| 2026-05-07 16:59 | 53.39146 | 10.18013 | 17291 ft | 360 kts | 166° |
| 2026-05-07 16:59 | 53.36556 | 10.19138 | 17972 ft | 364 kts | 166° |
| 2026-05-07 16:59 | 53.33918 | 10.20281 | 18680 ft | 368 kts | 166° |
| 2026-05-07 17:00 | 53.31160 | 10.21475 | 19405 ft | 371 kts | 166° |
| 2026-05-07 17:00 | 53.28525 | 10.22613 | 20057 ft | 375 kts | 166° |
| 2026-05-07 17:00 | 53.25901 | 10.23746 | 20681 ft | 378 kts | 166° |
| 2026-05-07 17:00 | 53.23281 | 10.24875 | 21286 ft | 381 kts | 166° |
| 2026-05-07 17:01 | 53.20640 | 10.26013 | 21879 ft | 385 kts | 166° |
| 2026-05-07 17:01 | 53.18012 | 10.27144 | 22455 ft | 388 kts | 166° |
| 2026-05-07 17:01 | 53.15335 | 10.28295 | 23026 ft | 391 kts | 166° |
| 2026-05-07 17:01 | 53.12617 | 10.29461 | 23589 ft | 394 kts | 166° |
| 2026-05-07 17:02 | 53.09886 | 10.30632 | 24142 ft | 396 kts | 166° |
| 2026-05-07 17:02 | 53.07061 | 10.31839 | 24697 ft | 399 kts | 166° |
| 2026-05-07 17:02 | 53.04147 | 10.33082 | 25024 ft | 408 kts | 166° |
| 2026-05-07 17:02 | 53.01253 | 10.34314 | 25230 ft | 419 kts | 166° |
| 2026-05-07 17:03 | 52.98383 | 10.35536 | 25426 ft | 428 kts | 166° |
| 2026-05-07 17:03 | 52.95314 | 10.36842 | 25714 ft | 435 kts | 166° |
| 2026-05-07 17:03 | 52.92215 | 10.38160 | 26142 ft | 438 kts | 166° |
| 2026-05-07 17:03 | 52.89058 | 10.39499 | 26590 ft | 441 kts | 166° |
| 2026-05-07 17:04 | 52.85822 | 10.40870 | 27020 ft | 443 kts | 166° |
| 2026-05-07 17:04 | 52.82619 | 10.42225 | 27414 ft | 446 kts | 166° |
| 2026-05-07 17:04 | 52.79613 | 10.43495 | 27770 ft | 449 kts | 166° |
| 2026-05-07 17:04 | 52.76560 | 10.44782 | 28125 ft | 451 kts | 166° |
| 2026-05-07 17:05 | 52.73528 | 10.46059 | 28464 ft | 454 kts | 166° |
| 2026-05-07 17:05 | 52.70476 | 10.47343 | 28790 ft | 456 kts | 166° |
| 2026-05-07 17:05 | 52.67108 | 10.48758 | 29133 ft | 458 kts | 166° |
| 2026-05-07 17:05 | 52.63971 | 10.50074 | 29678 ft | 455 kts | 166° |
| 2026-05-07 17:06 | 52.60925 | 10.51350 | 30631 ft | 442 kts | 166° |
| 2026-05-07 17:06 | 52.57982 | 10.52580 | 31532 ft | 430 kts | 166° |
| 2026-05-07 17:06 | 52.54985 | 10.53829 | 32058 ft | 426 kts | 165° |
| 2026-05-07 17:06 | 52.52006 | 10.55070 | 32384 ft | 427 kts | 165° |
| 2026-05-07 17:07 | 52.49042 | 10.56304 | 32697 ft | 428 kts | 165° |
| 2026-05-07 17:07 | 52.45922 | 10.57601 | 33076 ft | 428 kts | 165° |
| 2026-05-07 17:07 | 52.42822 | 10.58888 | 33378 ft | 427 kts | 165° |
| 2026-05-07 17:07 | 52.39743 | 10.60165 | 33615 ft | 428 kts | 165° |
| 2026-05-07 17:08 | 52.36611 | 10.61462 | 33820 ft | 429 kts | 165° |
| 2026-05-07 17:08 | 52.33438 | 10.62773 | 34021 ft | 431 kts | 165° |
| 2026-05-07 17:08 | 52.30262 | 10.64084 | 34225 ft | 432 kts | 165° |
| 2026-05-07 17:08 | 52.27111 | 10.65382 | 34444 ft | 433 kts | 166° |
| 2026-05-07 17:09 | 52.23960 | 10.66679 | 34631 ft | 434 kts | 166° |
| 2026-05-07 17:09 | 52.20790 | 10.67983 | 34831 ft | 435 kts | 166° |
| 2026-05-07 17:09 | 52.17711 | 10.69248 | 35012 ft | 436 kts | 166° |
| 2026-05-07 17:09 | 52.14733 | 10.70470 | 35061 ft | 436 kts | 166° |
| 2026-05-07 17:10 | 52.08503 | 10.73014 | 35065 ft | 437 kts | 166° |
| 2026-05-07 17:10 | 52.01997 | 10.75666 | 35062 ft | 437 kts | 166° |
| 2026-05-07 17:11 | 51.95539 | 10.78290 | 35063 ft | 437 kts | 166° |
| 2026-05-07 17:11 | 51.89005 | 10.80938 | 35053 ft | 437 kts | 166° |
| 2026-05-07 17:12 | 51.82544 | 10.83547 | 35054 ft | 437 kts | 166° |
| 2026-05-07 17:12 | 51.76134 | 10.86128 | 35044 ft | 437 kts | 166° |
| 2026-05-07 17:13 | 51.69694 | 10.88875 | 35045 ft | 438 kts | 163° |
| 2026-05-07 17:13 | 51.63593 | 10.92637 | 35051 ft | 438 kts | 155° |
| 2026-05-07 17:14 | 51.57688 | 10.97286 | 35045 ft | 438 kts | 154° |
| 2026-05-07 17:14 | 51.51781 | 11.01946 | 35045 ft | 438 kts | 154° |
| 2026-05-07 17:15 | 51.45885 | 11.06578 | 35054 ft | 438 kts | 154° |
| 2026-05-07 17:15 | 51.39924 | 11.11247 | 35044 ft | 438 kts | 154° |
| 2026-05-07 17:16 | 51.34055 | 11.15831 | 35054 ft | 438 kts | 154° |
| 2026-05-07 17:16 | 51.28238 | 11.20359 | 35041 ft | 438 kts | 154° |
| 2026-05-07 17:17 | 51.22361 | 11.24924 | 35053 ft | 438 kts | 154° |
| 2026-05-07 17:17 | 51.16606 | 11.29381 | 35043 ft | 438 kts | 154° |
| 2026-05-07 17:18 | 51.10773 | 11.33883 | 35050 ft | 438 kts | 154° |
| 2026-05-07 17:18 | 51.04968 | 11.38353 | 35041 ft | 438 kts | 155° |
| 2026-05-07 17:19 | 50.99106 | 11.42853 | 35055 ft | 438 kts | 154° |
| 2026-05-07 17:19 | 50.93333 | 11.47274 | 35051 ft | 438 kts | 155° |
| 2026-05-07 17:20 | 50.87690 | 11.51584 | 35049 ft | 439 kts | 155° |
| 2026-05-07 17:20 | 50.82111 | 11.55832 | 35044 ft | 439 kts | 155° |
| 2026-05-07 17:21 | 50.76440 | 11.60140 | 35045 ft | 439 kts | 155° |
| 2026-05-07 17:21 | 50.70830 | 11.64387 | 35040 ft | 439 kts | 155° |
| 2026-05-07 17:22 | 50.65234 | 11.68616 | 35031 ft | 439 kts | 156° |
| 2026-05-07 17:22 | 50.59537 | 11.72908 | 35031 ft | 439 kts | 156° |
| 2026-05-07 17:23 | 50.53856 | 11.77175 | 35035 ft | 439 kts | 156° |
| 2026-05-07 17:23 | 50.48205 | 11.81409 | 35019 ft | 439 kts | 156° |
| 2026-05-07 17:24 | 50.42554 | 11.85360 | 35036 ft | 438 kts | 158° |
| 2026-05-07 17:24 | 50.36952 | 11.89160 | 35029 ft | 438 kts | 158° |
| 2026-05-07 17:25 | 50.31352 | 11.92944 | 35027 ft | 438 kts | 158° |
| 2026-05-07 17:25 | 50.25768 | 11.96704 | 35024 ft | 438 kts | 158° |
| 2026-05-07 17:26 | 50.20217 | 12.00441 | 35025 ft | 438 kts | 158° |
| 2026-05-07 17:26 | 50.14648 | 12.04182 | 35017 ft | 437 kts | 158° |
| 2026-05-07 17:27 | 50.09069 | 12.07919 | 35007 ft | 437 kts | 159° |
| 2026-05-07 17:27 | 50.03490 | 12.11645 | 35007 ft | 437 kts | 159° |
| 2026-05-07 17:28 | 49.97937 | 12.15338 | 35005 ft | 437 kts | 159° |
| 2026-05-07 17:28 | 49.92364 | 12.19037 | 35009 ft | 438 kts | 159° |
| 2026-05-07 17:29 | 49.86761 | 12.22749 | 35012 ft | 438 kts | 159° |
| 2026-05-07 17:29 | 49.81086 | 12.26496 | 34504 ft | 440 kts | 159° |
| 2026-05-07 17:30 | 49.78106 | 12.28459 | 33711 ft | 449 kts | 159° |
| 2026-05-07 17:30 | 49.75004 | 12.30564 | 33041 ft | 454 kts | 155° |
| 2026-05-07 17:30 | 49.71997 | 12.33039 | 32443 ft | 456 kts | 150° |
| 2026-05-07 17:30 | 49.69176 | 12.35877 | 31838 ft | 458 kts | 144° |
| 2026-05-07 17:31 | 49.66404 | 12.39072 | 31135 ft | 460 kts | 143° |
| 2026-05-07 17:31 | 49.63657 | 12.42301 | 30228 ft | 462 kts | 143° |
| 2026-05-07 17:31 | 49.60863 | 12.45587 | 29229 ft | 464 kts | 143° |
| 2026-05-07 17:31 | 49.58088 | 12.48837 | 28492 ft | 461 kts | 143° |
| 2026-05-07 17:32 | 49.55388 | 12.51986 | 27880 ft | 455 kts | 143° |
| 2026-05-07 17:32 | 49.52850 | 12.54935 | 27280 ft | 451 kts | 143° |
| 2026-05-07 17:32 | 49.50323 | 12.57865 | 26785 ft | 444 kts | 143° |
| 2026-05-07 17:32 | 49.48553 | 12.59914 | 26593 ft | 436 kts | 143° |
| 2026-05-07 17:33 | 49.45174 | 12.63835 | 26210 ft | 426 kts | 142° |
| 2026-05-07 17:33 | 49.42779 | 12.66878 | 25928 ft | 425 kts | 139° |
| 2026-05-07 17:33 | 49.40587 | 12.70000 | 25659 ft | 424 kts | 139° |
| 2026-05-07 17:33 | 49.38186 | 12.72590 | 25357 ft | 419 kts | 159° |
| 2026-05-07 17:34 | 49.35312 | 12.73632 | 25080 ft | 411 kts | 181° |
| 2026-05-07 17:34 | 49.32543 | 12.73083 | 24813 ft | 402 kts | 201° |
| 2026-05-07 17:34 | 49.30018 | 12.71404 | 24557 ft | 397 kts | 209° |
| 2026-05-07 17:34 | 49.27553 | 12.69557 | 24283 ft | 396 kts | 209° |
| 2026-05-07 17:35 | 49.25021 | 12.67695 | 24007 ft | 394 kts | 209° |
| 2026-05-07 17:35 | 49.22548 | 12.65917 | 23735 ft | 392 kts | 208° |
| 2026-05-07 17:35 | 49.20082 | 12.64151 | 23462 ft | 390 kts | 208° |
| 2026-05-07 17:35 | 49.17612 | 12.62379 | 23188 ft | 388 kts | 208° |
| 2026-05-07 17:36 | 49.15087 | 12.60567 | 22904 ft | 385 kts | 208° |
| 2026-05-07 17:36 | 49.12603 | 12.58788 | 22631 ft | 383 kts | 208° |
| 2026-05-07 17:36 | 49.10169 | 12.57048 | 22359 ft | 381 kts | 208° |
| 2026-05-07 17:36 | 49.07772 | 12.55338 | 22089 ft | 379 kts | 208° |
| 2026-05-07 17:37 | 49.05370 | 12.53626 | 21816 ft | 377 kts | 208° |
| 2026-05-07 17:37 | 49.03000 | 12.51937 | 21442 ft | 376 kts | 208° |
| 2026-05-07 17:37 | 49.00609 | 12.50228 | 20957 ft | 373 kts | 208° |
| 2026-05-07 17:37 | 48.98298 | 12.48576 | 20485 ft | 369 kts | 208° |
| 2026-05-07 17:38 | 48.95963 | 12.46907 | 20004 ft | 366 kts | 208° |
| 2026-05-07 17:38 | 48.93671 | 12.45269 | 19530 ft | 363 kts | 208° |
| 2026-05-07 17:38 | 48.91226 | 12.43833 | 19032 ft | 363 kts | 199° |
| 2026-05-07 17:38 | 48.88785 | 12.42956 | 18562 ft | 361 kts | 195° |
| 2026-05-07 17:39 | 48.86323 | 12.42186 | 18095 ft | 358 kts | 195° |
| 2026-05-07 17:39 | 48.83866 | 12.41438 | 17631 ft | 356 kts | 195° |
| 2026-05-07 17:39 | 48.81411 | 12.40695 | 17163 ft | 353 kts | 195° |
| 2026-05-07 17:39 | 48.79031 | 12.39976 | 16710 ft | 351 kts | 195° |
| 2026-05-07 17:40 | 48.76627 | 12.39254 | 16249 ft | 349 kts | 195° |
| 2026-05-07 17:40 | 48.74211 | 12.38532 | 15786 ft | 346 kts | 195° |
| 2026-05-07 17:40 | 48.71734 | 12.37792 | 15307 ft | 344 kts | 195° |
| 2026-05-07 17:40 | 48.69290 | 12.37140 | 14829 ft | 344 kts | 188° |
| 2026-05-07 17:41 | 48.66821 | 12.37510 | 14355 ft | 347 kts | 169° |
| 2026-05-07 17:41 | 48.64326 | 12.38616 | 13867 ft | 346 kts | 166° |
| 2026-05-07 17:41 | 48.61978 | 12.39776 | 13399 ft | 343 kts | 165° |
| 2026-05-07 17:41 | 48.59655 | 12.40947 | 12932 ft | 337 kts | 165° |
| 2026-05-07 17:42 | 48.57408 | 12.42086 | 12463 ft | 325 kts | 165° |
| 2026-05-07 17:42 | 48.55279 | 12.43171 | 11989 ft | 314 kts | 165° |
| 2026-05-07 17:42 | 48.53158 | 12.44254 | 11461 ft | 305 kts | 165° |
| 2026-05-07 17:42 | 48.51081 | 12.45319 | 10934 ft | 299 kts | 165° |
| 2026-05-07 17:43 | 48.49064 | 12.46356 | 10421 ft | 301 kts | 165° |
| 2026-05-07 17:43 | 48.46933 | 12.46971 | 9880 ft | 296 kts | 187° |
| 2026-05-07 17:43 | 48.44915 | 12.46176 | 9373 ft | 289 kts | 213° |
| 2026-05-07 17:43 | 48.43437 | 12.44213 | 8943 ft | 281 kts | 237° |
| 2026-05-07 17:44 | 48.42387 | 12.41637 | 8575 ft | 276 kts | 243° |
| 2026-05-07 17:44 | 48.41452 | 12.38996 | 8123 ft | 276 kts | 244° |
| 2026-05-07 17:44 | 48.40620 | 12.36279 | 7597 ft | 278 kts | 253° |
| 2026-05-07 17:44 | 48.40212 | 12.33330 | 7081 ft | 279 kts | 264° |
| 2026-05-07 17:45 | 48.40029 | 12.30441 | 6605 ft | 272 kts | 265° |
| 2026-05-07 17:45 | 48.39875 | 12.27667 | 6222 ft | 259 kts | 265° |
| 2026-05-07 17:45 | 48.39725 | 12.25046 | 5958 ft | 246 kts | 265° |
| 2026-05-07 17:45 | 48.39571 | 12.22484 | 5755 ft | 237 kts | 265° |
| 2026-05-07 17:46 | 48.39422 | 12.20078 | 5588 ft | 229 kts | 265° |
| 2026-05-07 17:46 | 48.39290 | 12.17617 | 5429 ft | 225 kts | 268° |
| 2026-05-07 17:46 | 48.39195 | 12.15085 | 5286 ft | 226 kts | 267° |
| 2026-05-07 17:46 | 48.39054 | 12.12508 | 5153 ft | 227 kts | 265° |
| 2026-05-07 17:47 | 48.38879 | 12.09994 | 5030 ft | 226 kts | 264° |
| 2026-05-07 17:47 | 48.38691 | 12.07571 | 4752 ft | 223 kts | 264° |
| 2026-05-07 17:47 | 48.38505 | 12.05250 | 4440 ft | 215 kts | 264° |
| 2026-05-07 17:47 | 48.38317 | 12.02918 | 4130 ft | 205 kts | 265° |
| 2026-05-07 17:48 | 48.38140 | 12.00709 | 3892 ft | 191 kts | 265° |
| 2026-05-07 17:48 | 48.37987 | 11.98792 | 3661 ft | 178 kts | 265° |
| 2026-05-07 17:48 | 48.37840 | 11.96945 | 3417 ft | 165 kts | 265° |
| 2026-05-07 17:48 | 48.37705 | 11.95241 | 3165 ft | 150 kts | 266° |
| 2026-05-07 17:49 | 48.37583 | 11.93686 | 2935 ft | 142 kts | 267° |
| 2026-05-07 17:49 | 48.37468 | 11.92185 | 2756 ft | 141 kts | 266° |
| 2026-05-07 17:49 | 48.37347 | 11.90657 | 2574 ft | 141 kts | 265° |
| 2026-05-07 17:49 | 48.37216 | 11.89196 | 2384 ft | 141 kts | 265° |
| 2026-05-07 17:50 | 48.37107 | 11.87744 | 2195 ft | 140 kts | 268° |
| 2026-05-07 17:50 | 48.37007 | 11.86242 | 2012 ft | 140 kts | 266° |
| 2026-05-07 17:50 | 48.36882 | 11.84702 | 1815 ft | 140 kts | 265° |
| 2026-05-07 17:50 | 48.36768 | 11.83161 | 1624 ft | 140 kts | 266° |
| 2026-05-07 17:51 | 48.36648 | 11.81616 | 1468 ft | 133 kts | 266° |
| 2026-05-07 17:51 | 48.36557 | 11.80388 | 1461 ft | 73 kts | 264° |
| 2026-05-07 17:51 | 48.36517 | 11.79876 | 1464 ft | 37 kts | 263° |
| 2026-05-07 17:51 | 48.36488 | 11.79491 | 1465 ft | 33 kts | 263° |
| 2026-05-07 17:52 | 48.36459 | 11.79150 | 1467 ft | 29 kts | 259° |
| 2026-05-07 17:52 | 48.36377 | 11.78861 | 1469 ft | 27 kts | 235° |
| 2026-05-07 17:52 | 48.36292 | 11.78686 | 1471 ft | 16 kts | 233° |
| 2026-05-07 17:52 | 48.36280 | 11.78663 | 1471 ft | 0 kts | 233° |
| 2026-05-07 17:53 | 48.36277 | 11.78658 | 1471 ft | 1 kts | 233° |
| 2026-05-07 17:53 | 48.36265 | 11.78633 | 1471 ft | 4 kts | 233° |
| 2026-05-07 17:53 | 48.36243 | 11.78590 | 1471 ft | 6 kts | 233° |
| 2026-05-07 17:54 | 48.36210 | 11.78527 | 1472 ft | 8 kts | 227° |
| 2026-05-07 17:54 | 48.36150 | 11.78480 | 1472 ft | 10 kts | 185° |
| 2026-05-07 17:54 | 48.36064 | 11.78490 | 1473 ft | 12 kts | 167° |
| 2026-05-07 17:54 | 48.36039 | 11.78606 | 1473 ft | 13 kts | 83° |
| 2026-05-07 17:55 | 48.36050 | 11.78749 | 1472 ft | 14 kts | 83° |
| 2026-05-07 17:55 | 48.36061 | 11.78898 | 1471 ft | 14 kts | 83° |
| 2026-05-07 17:55 | 48.36073 | 11.79053 | 1471 ft | 14 kts | 84° |
| 2026-05-07 17:55 | 48.36084 | 11.79208 | 1470 ft | 14 kts | 83° |
| 2026-05-07 17:56 | 48.36060 | 11.79318 | 1469 ft | 11 kts | 159° |
| 2026-05-07 17:56 | 48.35981 | 11.79335 | 1470 ft | 10 kts | 174° |
| 2026-05-07 17:56 | 48.35912 | 11.79373 | 1470 ft | 9 kts | 124° |
| 2026-05-07 17:56 | 48.35864 | 11.79448 | 1470 ft | 9 kts | 162° |
| 2026-05-07 17:57 | 48.35800 | 11.79462 | 1471 ft | 9 kts | 174° |
| 2026-05-07 17:57 | 48.35753 | 11.79470 | 1471 ft | 9 kts | 173° |
| 2026-05-07 17:57 | 48.35661 | 11.79486 | 1472 ft | 8 kts | 173° |
| 2026-05-07 17:57 | 48.35598 | 11.79496 | 1472 ft | 9 kts | 173° |
| 2026-05-07 17:58 | 48.35525 | 11.79509 | 1473 ft | 10 kts | 173° |
| 2026-05-07 17:58 | 48.35453 | 11.79522 | 1473 ft | 10 kts | 174° |
| 2026-05-07 17:58 | 48.35382 | 11.79534 | 1474 ft | 9 kts | 174° |
| 2026-05-07 17:58 | 48.35310 | 11.79546 | 1474 ft | 9 kts | 174° |
| 2026-05-07 17:59 | 48.35260 | 11.79545 | 1474 ft | 6 kts | 195° |
| 2026-05-07 17:59 | 48.35219 | 11.79522 | 1475 ft | 5 kts | 201° |
| 2026-05-07 17:59 | 48.35186 | 11.79496 | 1475 ft | 4 kts | 226° |
| 2026-05-07 17:59 | 48.35175 | 11.79451 | 1475 ft | 3 kts | 261° |
| 2026-05-07 18:00 | 48.35171 | 11.79409 | 1476 ft | 3 kts | 264° |
| 2026-05-07 18:00 | 48.35169 | 11.79373 | 1476 ft | 2 kts | 263° |
| 2026-05-07 18:00 | 48.35166 | 11.79346 | 1476 ft | 0 kts | 263° |